createdAt,value
2023-03-24T00:01:26.070Z,11.30
2023-03-24T00:03:54.660Z,15.47
2023-03-24T00:06:23.415Z,11.63
2023-03-24T00:08:53.222Z,11.87
2023-03-24T00:11:22.198Z,10.47
2023-03-24T00:13:52.036Z,9.87
2023-03-24T00:16:21.881Z,10.33
2023-03-24T00:18:53.217Z,7.97
2023-03-24T00:21:23.687Z,12.00
2023-03-24T00:23:54.414Z,9.30
2023-03-24T00:26:25.535Z,7.57
2023-03-24T00:28:55.938Z,6.93
2023-03-24T00:31:24.680Z,8.40
2023-03-24T00:33:53.966Z,8.70
2023-03-24T00:36:23.265Z,7.80
2023-03-24T00:38:51.802Z,10.73
2023-03-24T00:41:21.071Z,5.60
2023-03-24T00:43:49.780Z,9.17
2023-03-24T00:46:29.239Z,10.40
2023-03-24T00:49:02.509Z,9.67
2023-03-24T00:51:31.923Z,6.33
2023-03-24T00:54:02.032Z,9.77
2023-03-24T00:56:31.231Z,9.63
2023-03-24T00:59:02.313Z,8.57
2023-03-24T01:01:35.252Z,5.77
2023-03-24T01:04:06.032Z,8.40
2023-03-24T01:06:36.613Z,8.07
2023-03-24T01:09:05.736Z,7.57
2023-03-24T01:11:37.803Z,9.33
2023-03-24T01:14:06.558Z,7.10
2023-03-24T01:16:36.790Z,9.80
2023-03-24T01:19:05.411Z,6.17
2023-03-24T01:21:35.199Z,7.10
2023-03-24T01:24:05.075Z,7.53
2023-03-24T01:26:33.671Z,7.37
2023-03-24T01:29:02.269Z,8.47
2023-03-24T01:31:30.776Z,5.10
2023-03-24T01:34:00.646Z,6.40
2023-03-24T01:36:29.077Z,6.27
2023-03-24T01:38:58.592Z,7.90
2023-03-24T01:41:27.006Z,9.87
2023-03-24T01:43:55.468Z,9.60
2023-03-24T01:46:24.068Z,12.70
2023-03-24T01:48:53.192Z,11.83
2023-03-24T01:51:24.830Z,15.47
2023-03-24T01:53:54.447Z,11.37
2023-03-24T01:56:22.846Z,13.70
2023-03-24T01:58:52.313Z,15.83
2023-03-24T02:01:22.054Z,16.10
2023-03-24T02:03:53.056Z,18.10
2023-03-24T02:06:23.394Z,17.27
2023-03-24T02:08:52.909Z,15.87
2023-03-24T02:11:21.545Z,18.83
2023-03-24T02:13:49.927Z,15.50
2023-03-24T02:16:21.784Z,14.07
2023-03-24T02:18:57.448Z,10.90
2023-03-24T02:21:38.044Z,15.47
2023-03-24T02:24:27.577Z,16.93
2023-03-24T02:26:57.775Z,13.10
2023-03-24T02:29:36.141Z,17.63
2023-03-24T02:32:28.486Z,14.07
2023-03-24T02:35:01.296Z,14.13
2023-03-24T02:37:48.013Z,21.27
2023-03-24T02:40:22.374Z,17.70
2023-03-24T02:42:54.399Z,10.90
2023-03-24T02:45:25.318Z,10.07
2023-03-24T02:47:57.929Z,13.23
2023-03-24T02:50:28.400Z,16.77
2023-03-24T02:53:00.586Z,16.37
2023-03-24T02:55:31.640Z,19.33
2023-03-24T02:58:00.508Z,14.63
2023-03-24T03:00:30.900Z,11.53
2023-03-24T03:02:59.894Z,12.20
2023-03-24T03:05:29.560Z,12.43
2023-03-24T03:07:58.182Z,19.03
2023-03-24T03:10:27.049Z,14.83
2023-03-24T03:12:57.538Z,13.77
2023-03-24T03:15:26.521Z,12.30
2023-03-24T03:17:55.485Z,11.33
2023-03-24T03:20:24.744Z,12.97
2023-03-24T03:22:53.540Z,14.03
2023-03-24T03:25:23.504Z,14.13
2023-03-24T03:27:53.041Z,11.13
2023-03-24T03:30:23.175Z,15.70
2023-03-24T03:32:54.545Z,13.83
2023-03-24T03:35:24.718Z,10.33
2023-03-24T03:37:54.698Z,17.90
2023-03-24T03:40:24.237Z,20.73
2023-03-24T03:42:52.620Z,20.77
2023-03-24T03:45:21.021Z,18.07
2023-03-24T03:47:50.889Z,23.67
2023-03-24T03:50:19.477Z,16.63
2023-03-24T03:52:47.875Z,23.20
2023-03-24T03:55:17.087Z,18.77
2023-03-24T03:57:45.507Z,22.03
2023-03-24T04:00:16.683Z,18.67
2023-03-24T04:02:47.736Z,18.43
2023-03-24T04:05:20.321Z,24.83
2023-03-24T04:08:19.272Z,21.67
2023-03-24T04:10:56.860Z,19.37
2023-03-24T04:13:26.548Z,22.50
2023-03-24T04:15:56.439Z,20.87
2023-03-24T04:18:30.208Z,23.10
2023-03-24T04:21:04.118Z,26.37
2023-03-24T04:23:32.991Z,35.40
2023-03-24T04:26:03.943Z,22.17
2023-03-24T04:28:34.297Z,25.30
2023-03-24T04:31:03.625Z,24.70
2023-03-24T04:33:33.697Z,22.50
2023-03-24T04:36:06.786Z,22.50
2023-03-24T04:38:36.467Z,25.13
2023-03-24T04:41:05.627Z,24.63
2023-03-24T04:43:36.749Z,28.77
2023-03-24T04:46:05.368Z,25.13
2023-03-24T04:48:33.985Z,22.40
2023-03-24T04:51:04.317Z,26.43
2023-03-24T04:53:32.689Z,29.30
2023-03-24T04:56:16.527Z,25.77
2023-03-24T04:58:44.882Z,29.03
2023-03-24T05:01:14.258Z,27.53
2023-03-24T05:03:42.755Z,26.33
2023-03-24T05:06:12.914Z,21.53
2023-03-24T05:08:42.076Z,32.60
2023-03-24T05:11:10.838Z,30.03
2023-03-24T05:13:39.271Z,25.67
2023-03-24T05:16:08.135Z,33.90
2023-03-24T05:18:37.184Z,20.27
2023-03-24T05:21:06.273Z,24.37
2023-03-24T05:23:36.167Z,26.50
2023-03-24T05:26:04.556Z,20.17
2023-03-24T05:28:33.133Z,26.10
2023-03-24T05:31:01.635Z,21.87
2023-03-24T05:33:30.230Z,23.40
2023-03-24T05:35:58.725Z,27.77
2023-03-24T05:38:27.200Z,22.03
2023-03-24T05:40:59.341Z,22.13
2023-03-24T05:43:27.978Z,24.57
2023-03-24T05:45:57.414Z,22.27
2023-03-24T05:48:25.980Z,22.73
2023-03-24T05:50:54.565Z,22.60
2023-03-24T05:53:23.071Z,21.83
2023-03-24T05:55:53.641Z,19.47
2023-03-24T05:58:24.169Z,23.83
2023-03-24T06:00:54.613Z,19.10
2023-03-24T06:03:23.585Z,23.30
2023-03-24T06:05:52.806Z,25.63
2023-03-24T06:08:21.195Z,24.00
2023-03-24T06:10:49.648Z,23.30
2023-03-24T06:13:18.036Z,28.77
2023-03-24T06:15:48.658Z,19.83
2023-03-24T06:18:17.233Z,30.33
2023-03-24T06:20:45.969Z,23.87
2023-03-24T06:23:15.473Z,28.13
2023-03-24T06:25:44.660Z,24.13
2023-03-24T06:28:14.311Z,14.00
2023-03-24T06:30:44.994Z,23.57
2023-03-24T06:33:14.975Z,19.20
2023-03-24T06:35:43.955Z,16.77
2023-03-24T06:38:13.384Z,21.37
2023-03-24T06:40:41.807Z,22.87
2023-03-24T06:43:10.197Z,18.90
2023-03-24T06:45:39.489Z,20.20
2023-03-24T06:48:07.975Z,25.20
2023-03-24T06:53:06.855Z,21.33
2023-03-24T06:55:35.449Z,23.67
2023-03-24T06:58:04.421Z,21.07
2023-03-24T07:00:33.116Z,18.97
2023-03-24T07:03:02.732Z,26.43
2023-03-24T07:05:32.585Z,17.57
2023-03-24T07:10:34.378Z,20.40
2023-03-24T07:13:03.344Z,27.60
2023-03-24T07:15:31.687Z,25.87
2023-03-24T07:18:00.251Z,20.33
2023-03-24T07:20:28.971Z,17.93
2023-03-24T07:22:57.691Z,21.23
2023-03-24T07:25:27.818Z,17.43
2023-03-24T07:27:56.705Z,20.40
2023-03-24T07:30:37.362Z,21.43
2023-03-24T07:33:10.146Z,19.70
2023-03-24T07:35:38.636Z,22.40
2023-03-24T07:38:07.187Z,21.80
2023-03-24T07:40:38.529Z,17.37
2023-03-24T07:43:07.223Z,20.27
2023-03-24T07:45:36.233Z,17.13
2023-03-24T07:48:05.073Z,14.23
2023-03-24T07:50:33.757Z,17.43
2023-03-24T07:53:02.196Z,16.70
2023-03-24T07:55:30.540Z,18.73
2023-03-24T07:58:00.867Z,17.63
2023-03-24T08:00:30.373Z,22.47
2023-03-24T08:03:00.241Z,17.77
2023-03-24T08:05:29.714Z,18.23
2023-03-24T08:07:58.685Z,17.97
2023-03-24T08:10:27.494Z,14.83
2023-03-24T08:12:56.194Z,23.93
2023-03-24T08:15:26.433Z,15.63
2023-03-24T08:17:56.496Z,22.80
2023-03-24T08:20:27.165Z,15.37
2023-03-24T08:22:55.913Z,19.70
2023-03-24T08:25:24.679Z,13.80
2023-03-24T08:27:53.164Z,17.53
2023-03-24T08:30:22.134Z,13.70
2023-03-24T08:32:52.147Z,10.77
2023-03-24T08:35:21.084Z,11.30
2023-03-24T08:37:49.444Z,16.90
2023-03-24T08:40:19.438Z,14.67
2023-03-24T08:42:49.611Z,10.03
2023-03-24T08:45:20.901Z,10.67
2023-03-24T08:47:50.504Z,18.20
2023-03-24T08:50:20.888Z,12.13
2023-03-24T08:52:49.465Z,13.40
2023-03-24T08:55:18.108Z,12.30
2023-03-24T08:57:46.745Z,15.27
2023-03-24T09:00:16.009Z,16.23
2023-03-24T09:02:45.109Z,21.53
2023-03-24T09:05:13.498Z,19.73
2023-03-24T09:07:43.321Z,13.27
2023-03-24T09:10:11.826Z,24.17
2023-03-24T09:12:40.440Z,19.90
2023-03-24T09:15:10.105Z,21.63
2023-03-24T09:17:39.874Z,20.60
2023-03-24T09:20:12.006Z,17.20
2023-03-24T09:22:42.693Z,21.67
2023-03-24T09:25:14.285Z,14.67
2023-03-24T09:27:42.642Z,14.93
2023-03-24T09:30:11.641Z,15.73
2023-03-24T09:32:40.448Z,17.87
2023-03-24T09:35:09.357Z,13.97
2023-03-24T09:37:38.533Z,19.30
2023-03-24T09:40:07.951Z,15.50
2023-03-24T09:42:38.315Z,10.90
2023-03-24T09:45:07.129Z,18.23
2023-03-24T09:47:35.997Z,13.47
2023-03-24T09:50:05.345Z,20.70
2023-03-24T09:52:34.611Z,16.70
2023-03-24T09:55:03.739Z,20.57
2023-03-24T09:57:36.159Z,13.93
2023-03-24T10:00:07.484Z,15.13
2023-03-24T10:02:35.952Z,17.60
2023-03-24T10:05:14.327Z,13.30
2023-03-24T10:07:45.192Z,14.13
2023-03-24T10:10:17.103Z,9.50
2023-03-24T10:12:46.707Z,16.33
2023-03-24T10:15:34.706Z,11.63
2023-03-24T10:18:07.846Z,13.83
2023-03-24T10:20:36.962Z,14.13
2023-03-24T10:23:06.890Z,13.33
2023-03-24T10:25:38.935Z,13.03
2023-03-24T10:28:09.042Z,14.63
2023-03-24T10:30:39.115Z,15.57
2023-03-24T10:33:07.593Z,14.97
2023-03-24T10:35:37.337Z,19.03
2023-03-24T10:38:06.545Z,15.97
2023-03-24T10:40:35.171Z,12.93
2023-03-24T10:43:06.940Z,17.90
2023-03-24T10:45:40.546Z,13.40
2023-03-24T10:48:09.775Z,9.93
2023-03-24T10:50:38.388Z,20.23
2023-03-24T10:53:10.763Z,11.60
2023-03-24T10:55:40.147Z,16.37
2023-03-24T10:58:12.585Z,14.07
2023-03-24T11:00:42.805Z,14.17
2023-03-24T11:03:13.746Z,14.83
2023-03-24T11:05:42.527Z,17.53
2023-03-24T11:08:15.294Z,13.20
2023-03-24T11:10:43.871Z,9.97
2023-03-24T11:13:18.999Z,9.07
2023-03-24T11:15:58.960Z,7.53
2023-03-24T11:18:27.456Z,14.43
2023-03-24T11:20:57.690Z,11.83
2023-03-24T11:23:27.971Z,11.60
2023-03-24T11:26:03.585Z,7.23
2023-03-24T11:28:31.953Z,11.43
2023-03-24T11:31:01.844Z,11.83
2023-03-24T11:33:35.248Z,9.47
2023-03-24T11:36:08.342Z,8.17
2023-03-24T11:38:36.958Z,11.43
2023-03-24T11:41:05.981Z,9.60
2023-03-24T11:43:34.391Z,9.23
2023-03-24T11:46:04.420Z,17.73
2023-03-24T11:48:33.986Z,13.07
2023-03-24T11:51:02.352Z,12.97
2023-03-24T11:53:32.349Z,15.13
2023-03-24T11:56:01.665Z,11.83
2023-03-24T11:58:31.057Z,12.47
2023-03-24T12:01:00.114Z,11.90
2023-03-24T12:03:41.667Z,18.67
2023-03-24T12:06:15.135Z,19.37
2023-03-24T12:08:46.265Z,12.23
2023-03-24T12:11:19.239Z,18.67
2023-03-24T12:13:50.064Z,14.03
2023-03-24T12:16:30.975Z,13.40
2023-03-24T12:19:13.192Z,14.53
2023-03-24T12:21:47.828Z,13.87
2023-03-24T12:24:19.325Z,11.93
2023-03-24T12:26:47.824Z,13.13
2023-03-24T12:29:26.681Z,12.50
2023-03-24T12:32:01.119Z,10.40
2023-03-24T12:34:42.379Z,12.67
2023-03-24T12:37:11.204Z,12.57
2023-03-24T12:39:43.130Z,15.87
2023-03-24T12:42:12.668Z,15.90
2023-03-24T12:44:59.077Z,15.10
2023-03-24T12:47:32.167Z,19.13
2023-03-24T12:50:06.272Z,7.27
2023-03-24T12:52:38.996Z,11.70
2023-03-24T12:55:09.239Z,8.50
2023-03-24T12:57:38.273Z,8.63
2023-03-24T13:00:08.936Z,12.20
2023-03-24T13:02:38.526Z,10.80
2023-03-24T13:05:09.520Z,8.73
2023-03-24T13:07:39.470Z,11.17
2023-03-24T13:10:09.225Z,12.03
2023-03-24T13:12:39.127Z,10.47
2023-03-24T13:15:08.763Z,7.93
2023-03-24T13:17:38.534Z,11.97
2023-03-24T13:20:08.160Z,8.37
2023-03-24T13:22:37.895Z,9.93
2023-03-24T13:25:07.158Z,6.83
2023-03-24T13:27:35.823Z,12.30
2023-03-24T13:30:15.856Z,11.80
2023-03-24T13:32:45.089Z,10.87
2023-03-24T13:35:15.756Z,11.47
2023-03-24T13:37:48.790Z,11.47
2023-03-24T13:40:21.172Z,13.30
2023-03-24T13:42:50.667Z,9.30
2023-03-24T13:45:26.414Z,13.03
2023-03-24T13:47:57.781Z,9.27
2023-03-24T13:50:26.612Z,7.87
2023-03-24T13:52:56.501Z,8.27
2023-03-24T13:55:25.390Z,12.73
2023-03-24T13:57:55.331Z,14.50
2023-03-24T14:00:24.272Z,7.73
2023-03-24T14:02:52.956Z,12.53
2023-03-24T14:05:42.738Z,9.70
2023-03-24T14:08:21.870Z,6.77
2023-03-24T14:10:51.774Z,11.50
2023-03-24T14:13:21.233Z,11.00
2023-03-24T14:15:51.471Z,8.27
2023-03-24T14:18:39.013Z,9.77
2023-03-24T14:21:07.655Z,8.33
2023-03-24T14:23:38.633Z,13.93
2023-03-24T14:26:07.286Z,9.33
2023-03-24T14:28:38.364Z,9.90
2023-03-24T14:31:21.638Z,14.20
2023-03-24T14:34:02.505Z,12.17
2023-03-24T14:36:32.769Z,11.37
2023-03-24T14:39:11.320Z,14.20
2023-03-24T14:41:40.586Z,11.70
2023-03-24T14:44:09.235Z,14.43
2023-03-24T14:46:39.142Z,15.17
2023-03-24T14:49:09.373Z,15.03
2023-03-24T14:51:39.684Z,13.27
2023-03-24T14:54:08.672Z,15.20
2023-03-24T14:56:39.874Z,9.30
2023-03-24T14:59:10.604Z,12.60
2023-03-24T15:01:39.423Z,14.07
2023-03-24T15:04:08.277Z,11.10
2023-03-24T15:06:44.651Z,15.47
2023-03-24T15:09:13.671Z,13.97
2023-03-24T15:11:43.574Z,15.77
2023-03-24T15:14:15.799Z,16.33
2023-03-24T15:16:44.224Z,11.80
2023-03-24T15:19:17.617Z,15.47
2023-03-24T15:21:47.954Z,15.33
2023-03-24T15:24:25.965Z,11.43
2023-03-24T15:26:56.278Z,12.37
2023-03-24T15:29:25.588Z,12.17
2023-03-24T15:31:54.391Z,11.80
2023-03-24T15:34:27.959Z,10.93
2023-03-24T15:36:56.547Z,14.70
2023-03-24T15:39:27.219Z,13.57
2023-03-24T15:41:57.396Z,11.23
2023-03-24T15:44:26.991Z,18.43
2023-03-24T15:46:56.700Z,13.47
2023-03-24T15:49:26.821Z,15.43
2023-03-24T15:51:57.563Z,12.70
2023-03-24T15:54:26.258Z,12.07
2023-03-24T15:57:06.013Z,13.57
2023-03-24T15:59:35.366Z,11.97
2023-03-24T16:02:03.782Z,16.77
2023-03-24T16:04:32.280Z,14.30
2023-03-24T16:07:00.705Z,14.63
2023-03-24T16:09:38.135Z,12.23
2023-03-24T16:12:12.404Z,14.67
2023-03-24T16:14:40.798Z,12.33
2023-03-24T16:17:09.281Z,12.00
2023-03-24T16:19:37.841Z,11.03
2023-03-24T16:22:07.610Z,13.10
2023-03-24T16:24:36.031Z,10.53
2023-03-24T16:27:04.414Z,11.87
2023-03-24T16:29:34.182Z,9.50
2023-03-24T16:32:03.127Z,11.70
2023-03-24T16:34:31.706Z,17.10
2023-03-24T16:37:00.046Z,14.67
2023-03-24T16:39:29.371Z,7.40
2023-03-24T16:42:01.006Z,11.53
2023-03-24T16:44:30.116Z,13.03
2023-03-24T16:46:59.909Z,11.97
2023-03-24T16:49:28.416Z,9.83
2023-03-24T16:51:56.804Z,11.30
2023-03-24T16:54:25.340Z,10.47
2023-03-24T16:56:53.833Z,7.33
2023-03-24T16:59:22.478Z,8.63
2023-03-24T17:01:50.831Z,9.47
2023-03-24T17:04:22.257Z,9.27
2023-03-24T17:06:53.712Z,8.93
2023-03-24T17:09:22.774Z,14.07
2023-03-24T17:11:52.279Z,12.23
2023-03-24T17:14:20.728Z,14.13
2023-03-24T17:16:52.671Z,12.00
2023-03-24T17:19:23.101Z,11.83
2023-03-24T17:21:52.185Z,11.10
2023-03-24T17:24:20.760Z,11.60
2023-03-24T17:26:49.140Z,13.63
2023-03-24T17:29:17.631Z,11.77
2023-03-24T17:31:46.086Z,9.60
2023-03-24T17:36:48.239Z,11.33
2023-03-24T17:39:17.851Z,13.73
2023-03-24T17:41:46.621Z,11.63
2023-03-24T17:44:15.028Z,14.37
2023-03-24T17:46:43.502Z,12.43
2023-03-24T17:49:11.930Z,7.97
2023-03-24T17:51:40.461Z,11.70
2023-03-24T17:54:11.846Z,13.53
2023-03-24T17:56:40.342Z,14.67
2023-03-24T17:59:08.907Z,11.87
2023-03-24T18:01:39.357Z,16.37
2023-03-24T18:04:08.186Z,11.93
2023-03-24T18:06:38.545Z,14.57
2023-03-24T18:09:08.752Z,10.23
2023-03-24T18:11:38.583Z,10.70
2023-03-24T18:14:09.139Z,8.17
2023-03-24T18:16:39.360Z,16.60
2023-03-24T18:19:08.047Z,9.87
2023-03-24T18:21:36.652Z,12.17
2023-03-24T18:24:06.503Z,16.20
2023-03-24T18:26:37.702Z,12.53
2023-03-24T18:29:06.911Z,12.77
2023-03-24T18:31:35.412Z,13.87
2023-03-24T18:34:04.153Z,9.20
2023-03-24T18:36:32.603Z,12.77
2023-03-24T18:39:01.270Z,9.93
2023-03-24T18:41:30.484Z,8.93
2023-03-24T18:44:00.592Z,9.53
2023-03-24T18:46:29.211Z,11.80
2023-03-24T18:48:57.919Z,10.83
2023-03-24T18:51:26.549Z,16.10
2023-03-24T18:53:55.124Z,9.53
2023-03-24T18:56:23.516Z,11.87
2023-03-24T18:58:52.461Z,14.73
2023-03-24T19:01:23.457Z,14.93
2023-03-24T19:03:52.072Z,15.30
2023-03-24T19:06:20.585Z,16.20
2023-03-24T19:08:51.631Z,15.73
2023-03-24T19:11:20.189Z,13.97
2023-03-24T19:13:50.677Z,11.43
2023-03-24T19:16:19.559Z,13.10
2023-03-24T19:18:50.710Z,11.00
2023-03-24T19:21:19.316Z,10.43
2023-03-24T19:23:47.908Z,14.20
2023-03-24T19:26:17.437Z,15.23
2023-03-24T19:28:47.306Z,13.43
2023-03-24T19:31:17.439Z,7.67
2023-03-24T19:33:45.920Z,10.00
2023-03-24T19:36:16.569Z,12.80
2023-03-24T19:38:45.246Z,11.87
2023-03-24T19:41:14.101Z,9.97
2023-03-24T19:43:42.564Z,15.53
2023-03-24T19:46:11.084Z,8.17
2023-03-24T19:48:39.531Z,10.90
2023-03-24T19:51:08.030Z,9.90
2023-03-24T19:53:38.037Z,8.60
2023-03-24T19:56:06.913Z,10.73
2023-03-24T19:58:35.380Z,11.27
2023-03-24T20:01:03.945Z,13.10
2023-03-24T20:03:33.042Z,12.53
2023-03-24T20:06:09.171Z,14.57
2023-03-24T20:08:39.105Z,16.50
2023-03-24T20:11:10.487Z,16.43
2023-03-24T20:13:38.866Z,13.30
2023-03-24T20:16:07.682Z,12.93
2023-03-24T20:18:36.445Z,11.50
2023-03-24T20:21:09.247Z,12.33
2023-03-24T20:23:39.048Z,10.60
2023-03-24T20:26:07.412Z,10.87
2023-03-24T20:28:35.750Z,14.80
2023-03-24T20:31:04.468Z,10.90
2023-03-24T20:33:32.890Z,15.07
2023-03-24T20:36:01.313Z,16.70
2023-03-24T20:38:29.759Z,14.77
2023-03-24T20:41:02.990Z,17.33
2023-03-24T20:43:38.102Z,13.67
2023-03-24T20:46:08.413Z,12.27
2023-03-24T20:48:39.051Z,11.13
2023-03-24T20:51:07.841Z,16.43
2023-03-24T20:53:36.489Z,15.60
2023-03-24T20:56:07.088Z,16.33
2023-03-24T20:58:35.519Z,14.27
2023-03-24T21:01:07.985Z,17.20
2023-03-24T21:03:36.626Z,14.63
2023-03-24T21:06:05.175Z,16.90
2023-03-24T21:08:33.551Z,12.97
2023-03-24T21:11:02.119Z,15.87
2023-03-24T21:13:37.213Z,13.03
2023-03-24T21:16:08.070Z,18.43
2023-03-24T21:18:36.824Z,16.33
2023-03-24T21:21:05.269Z,13.00
2023-03-24T21:23:34.415Z,16.60
2023-03-24T21:26:06.058Z,12.87
2023-03-24T21:28:35.907Z,15.67
2023-03-24T21:31:07.987Z,14.23
2023-03-24T21:33:40.044Z,15.03
2023-03-24T21:36:09.906Z,13.07
2023-03-24T21:38:39.112Z,13.50
2023-03-24T21:41:07.553Z,9.70
2023-03-24T21:43:37.437Z,9.77
2023-03-24T21:46:06.729Z,10.13
2023-03-24T21:48:40.090Z,13.20
2023-03-24T21:51:09.053Z,9.33
2023-03-24T21:53:37.556Z,16.07
2023-03-24T21:56:06.168Z,14.83
2023-03-24T21:58:34.830Z,14.07
2023-03-24T22:01:04.550Z,7.20
2023-03-24T22:03:34.521Z,15.30
2023-03-24T22:06:03.019Z,13.30
2023-03-24T22:08:31.929Z,13.67
2023-03-24T22:11:00.642Z,15.63
2023-03-24T22:13:29.248Z,13.83
2023-03-24T22:15:58.655Z,10.60
2023-03-24T22:18:28.893Z,15.63
2023-03-24T22:20:57.417Z,12.97
2023-03-24T22:23:25.800Z,12.57
2023-03-24T22:25:54.198Z,11.67
2023-03-24T22:28:22.684Z,18.27
2023-03-24T22:30:51.075Z,12.40
2023-03-24T22:33:19.469Z,18.00
2023-03-24T22:35:49.572Z,13.47
2023-03-24T22:38:18.130Z,8.83
2023-03-24T22:40:46.758Z,12.80
2023-03-24T22:43:15.660Z,15.83
2023-03-24T22:45:44.118Z,15.97
2023-03-24T22:48:12.862Z,15.93
2023-03-24T22:50:42.246Z,15.37
2023-03-24T22:53:12.038Z,13.90
2023-03-24T22:55:42.138Z,13.73
2023-03-24T22:58:11.314Z,13.43
2023-03-24T23:00:39.938Z,12.83
2023-03-24T23:03:09.062Z,15.23
2023-03-24T23:05:40.827Z,13.90
2023-03-24T23:08:09.984Z,14.77
2023-03-24T23:10:40.463Z,10.77
2023-03-24T23:13:10.518Z,15.57
2023-03-24T23:15:42.707Z,16.80
2023-03-24T23:18:11.889Z,21.73
2023-03-24T23:20:40.627Z,15.60
2023-03-24T23:23:09.306Z,17.00
2023-03-24T23:25:42.504Z,13.70
2023-03-24T23:28:11.216Z,17.80
2023-03-24T23:30:39.730Z,17.57
2023-03-24T23:33:08.272Z,14.40
2023-03-24T23:35:37.519Z,12.03
2023-03-24T23:38:06.752Z,21.20
2023-03-24T23:40:35.381Z,15.23
2023-03-24T23:43:05.651Z,19.97
2023-03-24T23:45:34.209Z,12.80
2023-03-24T23:48:02.718Z,18.13
2023-03-24T23:50:31.100Z,15.53
2023-03-24T23:52:59.615Z,17.07
2023-03-24T23:55:28.140Z,16.37
2023-03-24T23:57:56.631Z,14.70
